sensor_id;sensor_type;location;lat;lon;timestamp;pressure;altitude;pressure_sealevel;temperature;humidity
25658;BME280;13517;59.320;18.042;2023-09-18T00:01:47;101853.56;;;7.63;100.00
25658;BME280;13517;59.320;18.042;2023-09-18T00:04:13;101854.25;;;7.70;100.00
25658;BME280;13517;59.320;18.042;2023-09-18T00:06:38;101861.94;;;7.81;100.00
25658;BME280;13517;59.320;18.042;2023-09-18T00:09:03;101837.22;;;7.69;100.00
25658;BME280;13517;59.320;18.042;2023-09-18T00:11:29;101858.00;;;7.91;100.00
25658;BME280;13517;59.320;18.042;2023-09-18T00:13:54;101858.75;;;7.95;100.00
25658;BME280;13517;59.320;18.042;2023-09-18T00:16:19;101840.09;;;7.90;100.00
25658;BME280;13517;59.320;18.042;2023-09-18T00:18:45;101826.59;;;7.92;100.00
25658;BME280;13517;59.320;18.042;2023-09-18T00:21:11;101853.81;;;8.08;100.00
25658;BME280;13517;59.320;18.042;2023-09-18T00:23:37;101818.06;;;7.79;100.00
25658;BME280;13517;59.320;18.042;2023-09-18T00:26:03;101859.09;;;8.11;100.00
25658;BME280;13517;59.320;18.042;2023-09-18T00:28:28;101800.34;;;7.73;100.00
25658;BME280;13517;59.320;18.042;2023-09-18T00:30:54;101849.56;;;8.00;100.00
25658;BME280;13517;59.320;18.042;2023-09-18T00:33:19;101863.88;;;8.02;100.00
25658;BME280;13517;59.320;18.042;2023-09-18T00:35:49;101870.34;;;7.97;100.00
25658;BME280;13517;59.320;18.042;2023-09-18T00:38:15;101865.03;;;7.95;100.00
25658;BME280;13517;59.320;18.042;2023-09-18T00:40:41;101850.34;;;7.79;100.00
25658;BME280;13517;59.320;18.042;2023-09-18T00:43:07;101859.88;;;7.89;100.00
25658;BME280;13517;59.320;18.042;2023-09-18T00:45:33;101837.47;;;7.61;100.00
25658;BME280;13517;59.320;18.042;2023-09-18T00:47:59;101836.88;;;7.53;100.00
25658;BME280;13517;59.320;18.042;2023-09-18T00:50:25;101792.88;;;7.29;100.00
25658;BME280;13517;59.320;18.042;2023-09-18T00:52:51;101816.78;;;7.38;100.00
25658;BME280;13517;59.320;18.042;2023-09-18T00:55:17;101815.84;;;7.39;100.00
25658;BME280;13517;59.320;18.042;2023-09-18T00:57:43;101851.69;;;7.65;100.00
25658;BME280;13517;59.320;18.042;2023-09-18T01:00:11;101811.06;;;7.47;100.00
25658;BME280;13517;59.320;18.042;2023-09-18T01:02:40;101802.69;;;7.57;100.00
25658;BME280;13517;59.320;18.042;2023-09-18T01:05:06;101821.47;;;7.84;100.00
25658;BME280;13517;59.320;18.042;2023-09-18T01:07:31;101811.22;;;7.95;100.00
25658;BME280;13517;59.320;18.042;2023-09-18T01:09:57;101778.44;;;7.84;100.00
25658;BME280;13517;59.320;18.042;2023-09-18T01:12:45;101843.59;;;8.17;100.00
25658;BME280;13517;59.320;18.042;2023-09-18T01:15:18;101837.28;;;8.18;100.00
25658;BME280;13517;59.320;18.042;2023-09-18T01:17:46;101811.09;;;7.98;100.00
25658;BME280;13517;59.320;18.042;2023-09-18T01:20:12;101800.50;;;7.94;100.00
25658;BME280;13517;59.320;18.042;2023-09-18T01:22:38;101834.81;;;8.12;100.00
25658;BME280;13517;59.320;18.042;2023-09-18T01:25:03;101783.94;;;7.81;100.00
25658;BME280;13517;59.320;18.042;2023-09-18T01:27:31;101808.63;;;7.92;100.00
25658;BME280;13517;59.320;18.042;2023-09-18T01:29:56;101794.06;;;7.72;100.00
25658;BME280;13517;59.320;18.042;2023-09-18T01:32:24;101840.81;;;7.95;100.00
25658;BME280;13517;59.320;18.042;2023-09-18T01:34:56;101815.28;;;7.82;100.00
25658;BME280;13517;59.320;18.042;2023-09-18T01:37:23;101834.00;;;7.85;100.00
25658;BME280;13517;59.320;18.042;2023-09-18T01:39:51;101834.97;;;7.82;100.00
25658;BME280;13517;59.320;18.042;2023-09-18T01:42:17;101850.28;;;7.80;100.00
25658;BME280;13517;59.320;18.042;2023-09-18T01:44:44;101846.66;;;7.81;100.00
25658;BME280;13517;59.320;18.042;2023-09-18T01:47:17;101754.31;;;7.30;100.00
25658;BME280;13517;59.320;18.042;2023-09-18T01:49:43;101809.13;;;7.53;100.00
25658;BME280;13517;59.320;18.042;2023-09-18T01:52:09;101802.19;;;7.45;100.00
25658;BME280;13517;59.320;18.042;2023-09-18T01:54:35;101825.34;;;7.49;100.00
25658;BME280;13517;59.320;18.042;2023-09-18T01:57:01;101847.53;;;7.56;100.00
25658;BME280;13517;59.320;18.042;2023-09-18T01:59:28;101846.03;;;7.47;100.00
25658;BME280;13517;59.320;18.042;2023-09-18T02:01:54;101847.06;;;7.43;100.00
25658;BME280;13517;59.320;18.042;2023-09-18T02:04:20;101847.28;;;7.37;100.00
25658;BME280;13517;59.320;18.042;2023-09-18T02:06:47;101853.72;;;7.31;100.00
25658;BME280;13517;59.320;18.042;2023-09-18T02:09:13;101840.47;;;7.25;100.00
25658;BME280;13517;59.320;18.042;2023-09-18T02:11:40;101823.84;;;7.14;100.00
25658;BME280;13517;59.320;18.042;2023-09-18T02:14:07;101823.78;;;7.15;100.00
25658;BME280;13517;59.320;18.042;2023-09-18T02:16:35;101814.13;;;7.09;100.00
25658;BME280;13517;59.320;18.042;2023-09-18T02:19:02;101838.31;;;7.36;100.00
25658;BME280;13517;59.320;18.042;2023-09-18T02:21:28;101830.88;;;7.45;100.00
25658;BME280;13517;59.320;18.042;2023-09-18T02:23:54;101805.91;;;7.41;100.00
25658;BME280;13517;59.320;18.042;2023-09-18T02:26:24;101821.47;;;7.58;100.00
25658;BME280;13517;59.320;18.042;2023-09-18T02:28:52;101787.69;;;7.49;100.00
25658;BME280;13517;59.320;18.042;2023-09-18T02:31:18;101778.19;;;7.66;100.00
25658;BME280;13517;59.320;18.042;2023-09-18T02:33:44;101762.13;;;7.63;100.00
25658;BME280;13517;59.320;18.042;2023-09-18T02:36:09;101780.34;;;7.80;100.00
25658;BME280;13517;59.320;18.042;2023-09-18T02:38:35;101762.41;;;7.81;100.00
25658;BME280;13517;59.320;18.042;2023-09-18T02:41:00;101808.78;;;8.13;100.00
25658;BME280;13517;59.320;18.042;2023-09-18T02:43:26;101773.75;;;7.89;100.00
25658;BME280;13517;59.320;18.042;2023-09-18T02:45:52;101814.97;;;8.15;100.00
25658;BME280;13517;59.320;18.042;2023-09-18T02:48:18;101781.66;;;7.94;100.00
25658;BME280;13517;59.320;18.042;2023-09-18T02:50:44;101793.06;;;8.00;100.00
25658;BME280;13517;59.320;18.042;2023-09-18T02:53:23;101788.03;;;7.91;100.00
25658;BME280;13517;59.320;18.042;2023-09-18T02:55:54;101812.84;;;7.99;100.00
25658;BME280;13517;59.320;18.042;2023-09-18T02:58:20;101767.06;;;7.75;100.00
25658;BME280;13517;59.320;18.042;2023-09-18T03:00:47;101775.88;;;7.81;100.00
25658;BME280;13517;59.320;18.042;2023-09-18T03:03:14;101796.16;;;7.89;100.00
25658;BME280;13517;59.320;18.042;2023-09-18T03:05:41;101796.31;;;7.85;100.00
25658;BME280;13517;59.320;18.042;2023-09-18T03:08:07;101766.56;;;7.64;100.00
25658;BME280;13517;59.320;18.042;2023-09-18T03:10:40;101804.56;;;7.80;100.00
25658;BME280;13517;59.320;18.042;2023-09-18T03:13:08;101723.38;;;7.43;100.00
25658;BME280;13517;59.320;18.042;2023-09-18T03:15:34;101754.09;;;7.61;100.00
25658;BME280;13517;59.320;18.042;2023-09-18T03:18:00;101729.44;;;7.50;100.00
25658;BME280;13517;59.320;18.042;2023-09-18T03:20:27;101762.34;;;7.82;100.00
25658;BME280;13517;59.320;18.042;2023-09-18T03:22:54;101749.94;;;7.78;100.00
25658;BME280;13517;59.320;18.042;2023-09-18T03:25:20;101736.72;;;7.72;100.00
25658;BME280;13517;59.320;18.042;2023-09-18T03:27:47;101758.34;;;7.94;100.00
25658;BME280;13517;59.320;18.042;2023-09-18T03:30:12;101725.78;;;7.76;100.00
25658;BME280;13517;59.320;18.042;2023-09-18T03:32:40;101752.84;;;7.97;100.00
25658;BME280;13517;59.320;18.042;2023-09-18T03:35:06;101697.72;;;7.60;100.00
25658;BME280;13517;59.320;18.042;2023-09-18T03:37:34;101726.50;;;7.82;100.00
25658;BME280;13517;59.320;18.042;2023-09-18T03:39:59;101739.50;;;7.94;100.00
25658;BME280;13517;59.320;18.042;2023-09-18T03:42:25;101756.25;;;8.02;100.00
25658;BME280;13517;59.320;18.042;2023-09-18T03:44:51;101735.03;;;7.93;100.00
25658;BME280;13517;59.320;18.042;2023-09-18T03:47:16;101721.16;;;7.80;100.00
25658;BME280;13517;59.320;18.042;2023-09-18T03:49:42;101697.50;;;7.66;100.00
25658;BME280;13517;59.320;18.042;2023-09-18T03:52:07;101730.91;;;7.84;100.00
25658;BME280;13517;59.320;18.042;2023-09-18T03:54:32;101714.31;;;7.71;100.00
25658;BME280;13517;59.320;18.042;2023-09-18T03:56:58;101711.63;;;7.71;100.00
25658;BME280;13517;59.320;18.042;2023-09-18T03:59:23;101702.88;;;7.66;100.00
25658;BME280;13517;59.320;18.042;2023-09-18T04:01:49;101725.56;;;7.83;100.00
25658;BME280;13517;59.320;18.042;2023-09-18T04:04:15;101735.75;;;7.98;100.00
25658;BME280;13517;59.320;18.042;2023-09-18T04:06:42;101726.72;;;7.99;100.00
25658;BME280;13517;59.320;18.042;2023-09-18T04:09:08;101655.50;;;7.62;100.00
25658;BME280;13517;59.320;18.042;2023-09-18T04:11:33;101684.28;;;7.84;100.00
25658;BME280;13517;59.320;18.042;2023-09-18T04:14:00;101692.91;;;7.92;100.00
25658;BME280;13517;59.320;18.042;2023-09-18T04:16:26;101716.63;;;8.06;100.00
25658;BME280;13517;59.320;18.042;2023-09-18T04:18:53;101692.69;;;7.98;100.00
25658;BME280;13517;59.320;18.042;2023-09-18T04:21:18;101682.06;;;7.95;100.00
25658;BME280;13517;59.320;18.042;2023-09-18T04:23:44;101674.00;;;7.95;100.00
25658;BME280;13517;59.320;18.042;2023-09-18T04:26:10;101679.13;;;8.01;100.00
25658;BME280;13517;59.320;18.042;2023-09-18T04:28:36;101613.97;;;7.69;100.00
25658;BME280;13517;59.320;18.042;2023-09-18T04:31:01;101671.63;;;8.10;100.00
25658;BME280;13517;59.320;18.042;2023-09-18T04:33:26;101669.69;;;8.13;100.00
25658;BME280;13517;59.320;18.042;2023-09-18T04:35:54;101654.50;;;8.12;100.00
25658;BME280;13517;59.320;18.042;2023-09-18T04:38:19;101670.06;;;8.26;100.00
25658;BME280;13517;59.320;18.042;2023-09-18T04:40:45;101665.88;;;8.19;100.00
25658;BME280;13517;59.320;18.042;2023-09-18T04:43:11;101683.34;;;8.31;100.00
25658;BME280;13517;59.320;18.042;2023-09-18T04:45:37;101693.03;;;8.37;100.00
25658;BME280;13517;59.320;18.042;2023-09-18T04:48:02;101663.94;;;8.23;100.00
25658;BME280;13517;59.320;18.042;2023-09-18T04:50:28;101661.19;;;8.24;100.00
25658;BME280;13517;59.320;18.042;2023-09-18T04:52:54;101688.88;;;8.50;100.00
25658;BME280;13517;59.320;18.042;2023-09-18T04:55:21;101685.16;;;8.54;100.00
25658;BME280;13517;59.320;18.042;2023-09-18T04:57:46;101548.31;;;7.75;100.00
25658;BME280;13517;59.320;18.042;2023-09-18T05:00:12;101652.56;;;8.38;100.00
25658;BME280;13517;59.320;18.042;2023-09-18T05:02:39;101676.06;;;8.57;100.00
25658;BME280;13517;59.320;18.042;2023-09-18T05:05:06;101669.00;;;8.54;100.00
25658;BME280;13517;59.320;18.042;2023-09-18T05:07:34;101659.25;;;8.50;100.00
25658;BME280;13517;59.320;18.042;2023-09-18T05:09:59;101648.66;;;8.45;100.00
25658;BME280;13517;59.320;18.042;2023-09-18T05:12:24;101684.53;;;8.70;100.00
25658;BME280;13517;59.320;18.042;2023-09-18T05:14:50;101652.84;;;8.54;100.00
25658;BME280;13517;59.320;18.042;2023-09-18T05:17:17;101683.22;;;8.80;100.00
25658;BME280;13517;59.320;18.042;2023-09-18T05:19:44;101692.03;;;8.84;100.00
25658;BME280;13517;59.320;18.042;2023-09-18T05:22:10;101662.59;;;8.79;100.00
25658;BME280;13517;59.320;18.042;2023-09-18T05:24:36;101688.94;;;8.93;100.00
25658;BME280;13517;59.320;18.042;2023-09-18T05:27:01;101641.41;;;8.70;100.00
25658;BME280;13517;59.320;18.042;2023-09-18T05:29:28;101654.13;;;8.89;100.00
25658;BME280;13517;59.320;18.042;2023-09-18T05:31:53;101684.53;;;9.13;100.00
25658;BME280;13517;59.320;18.042;2023-09-18T05:34:18;101633.16;;;8.95;100.00
25658;BME280;13517;59.320;18.042;2023-09-18T05:36:44;101629.44;;;8.98;100.00
25658;BME280;13517;59.320;18.042;2023-09-18T05:39:09;101651.16;;;9.16;100.00
25658;BME280;13517;59.320;18.042;2023-09-18T05:41:38;101643.09;;;9.16;100.00
25658;BME280;13517;59.320;18.042;2023-09-18T05:44:03;101634.16;;;9.13;100.00
25658;BME280;13517;59.320;18.042;2023-09-18T05:46:34;101650.59;;;9.28;100.00
25658;BME280;13517;59.320;18.042;2023-09-18T05:48:59;101677.28;;;9.55;100.00
25658;BME280;13517;59.320;18.042;2023-09-18T05:51:25;101674.19;;;9.64;100.00
25658;BME280;13517;59.320;18.042;2023-09-18T05:53:51;101616.84;;;9.40;100.00
25658;BME280;13517;59.320;18.042;2023-09-18T05:56:16;101631.31;;;9.58;100.00
25658;BME280;13517;59.320;18.042;2023-09-18T05:58:43;101662.69;;;9.80;100.00
25658;BME280;13517;59.320;18.042;2023-09-18T06:01:08;101664.28;;;9.84;100.00
25658;BME280;13517;59.320;18.042;2023-09-18T06:03:34;101668.59;;;9.88;100.00
25658;BME280;13517;59.320;18.042;2023-09-18T06:06:04;101664.81;;;9.92;100.00
25658;BME280;13517;59.320;18.042;2023-09-18T06:08:30;101622.34;;;9.77;100.00
25658;BME280;13517;59.320;18.042;2023-09-18T06:10:59;101652.41;;;10.07;100.00
25658;BME280;13517;59.320;18.042;2023-09-18T06:13:25;101649.47;;;10.12;100.00
25658;BME280;13517;59.320;18.042;2023-09-18T06:15:52;101615.84;;;10.00;100.00
25658;BME280;13517;59.320;18.042;2023-09-18T06:18:20;101634.13;;;10.32;100.00
25658;BME280;13517;59.320;18.042;2023-09-18T06:20:51;101641.88;;;10.40;100.00
25658;BME280;13517;59.320;18.042;2023-09-18T06:23:16;101610.94;;;10.28;100.00
25658;BME280;13517;59.320;18.042;2023-09-18T06:25:42;101613.00;;;10.40;100.00
25658;BME280;13517;59.320;18.042;2023-09-18T06:28:07;101588.88;;;10.37;100.00
25658;BME280;13517;59.320;18.042;2023-09-18T06:30:33;101609.59;;;10.73;100.00
25658;BME280;13517;59.320;18.042;2023-09-18T06:33:02;101592.19;;;10.79;100.00
25658;BME280;13517;59.320;18.042;2023-09-18T06:35:29;101591.28;;;10.96;100.00
25658;BME280;13517;59.320;18.042;2023-09-18T06:37:54;101605.84;;;11.11;100.00
25658;BME280;13517;59.320;18.042;2023-09-18T06:40:23;101614.31;;;11.39;100.00
25658;BME280;13517;59.320;18.042;2023-09-18T06:42:49;101576.94;;;11.29;100.00
25658;BME280;13517;59.320;18.042;2023-09-18T06:45:14;101595.47;;;11.53;100.00
25658;BME280;13517;59.320;18.042;2023-09-18T06:47:40;101607.22;;;11.70;100.00
25658;BME280;13517;59.320;18.042;2023-09-18T06:50:06;101561.13;;;11.55;100.00
25658;BME280;13517;59.320;18.042;2023-09-18T06:52:31;101580.31;;;11.67;100.00
25658;BME280;13517;59.320;18.042;2023-09-18T06:54:57;101600.94;;;11.85;100.00
25658;BME280;13517;59.320;18.042;2023-09-18T06:57:25;101605.56;;;11.99;100.00
25658;BME280;13517;59.320;18.042;2023-09-18T06:59:51;101608.03;;;12.04;100.00
25658;BME280;13517;59.320;18.042;2023-09-18T07:02:16;101572.50;;;11.94;100.00
25658;BME280;13517;59.320;18.042;2023-09-18T07:04:42;101571.00;;;12.05;100.00
25658;BME280;13517;59.320;18.042;2023-09-18T07:07:14;101557.19;;;12.09;100.00
25658;BME280;13517;59.320;18.042;2023-09-18T07:09:42;101601.97;;;12.47;100.00
25658;BME280;13517;59.320;18.042;2023-09-18T07:12:08;101588.50;;;12.46;100.00
25658;BME280;13517;59.320;18.042;2023-09-18T07:14:36;101604.88;;;12.75;100.00
25658;BME280;13517;59.320;18.042;2023-09-18T07:17:04;101589.41;;;12.77;100.00
25658;BME280;13517;59.320;18.042;2023-09-18T07:19:29;101574.97;;;12.76;100.00
25658;BME280;13517;59.320;18.042;2023-09-18T07:21:55;101565.59;;;12.82;100.00
25658;BME280;13517;59.320;18.042;2023-09-18T07:24:20;101591.13;;;13.08;100.00
25658;BME280;13517;59.320;18.042;2023-09-18T07:26:47;101591.22;;;13.21;100.00
25658;BME280;13517;59.320;18.042;2023-09-18T07:29:13;101581.94;;;13.26;100.00
25658;BME280;13517;59.320;18.042;2023-09-18T07:31:43;101539.38;;;13.12;100.00
25658;BME280;13517;59.320;18.042;2023-09-18T07:34:09;101589.00;;;13.43;100.00
25658;BME280;13517;59.320;18.042;2023-09-18T07:36:35;101590.75;;;13.44;100.00
25658;BME280;13517;59.320;18.042;2023-09-18T07:39:00;101572.91;;;13.40;100.00
25658;BME280;13517;59.320;18.042;2023-09-18T07:41:26;101574.22;;;13.48;100.00
25658;BME280;13517;59.320;18.042;2023-09-18T07:43:51;101543.34;;;13.35;100.00
25658;BME280;13517;59.320;18.042;2023-09-18T07:46:17;101547.25;;;13.45;100.00
25658;BME280;13517;59.320;18.042;2023-09-18T07:48:42;101537.34;;;13.44;100.00
25658;BME280;13517;59.320;18.042;2023-09-18T07:51:11;101565.38;;;13.59;100.00
25658;BME280;13517;59.320;18.042;2023-09-18T07:53:37;101568.38;;;13.69;100.00
25658;BME280;13517;59.320;18.042;2023-09-18T07:56:03;101565.25;;;13.75;100.00
25658;BME280;13517;59.320;18.042;2023-09-18T07:58:30;101559.53;;;13.80;100.00
25658;BME280;13517;59.320;18.042;2023-09-18T08:00:56;101524.94;;;13.69;100.00
25658;BME280;13517;59.320;18.042;2023-09-18T08:03:27;101548.72;;;13.93;100.00
25658;BME280;13517;59.320;18.042;2023-09-18T08:05:53;101551.78;;;14.01;100.00
25658;BME280;13517;59.320;18.042;2023-09-18T08:08:20;101531.03;;;14.00;100.00
25658;BME280;13517;59.320;18.042;2023-09-18T08:10:46;101538.16;;;14.16;100.00
25658;BME280;13517;59.320;18.042;2023-09-18T08:13:12;101546.25;;;14.30;100.00
25658;BME280;13517;59.320;18.042;2023-09-18T08:15:38;101515.91;;;14.24;100.00
25658;BME280;13517;59.320;18.042;2023-09-18T08:18:03;101505.38;;;14.19;100.00
25658;BME280;13517;59.320;18.042;2023-09-18T08:20:29;101518.88;;;14.34;100.00
25658;BME280;13517;59.320;18.042;2023-09-18T08:22:55;101531.09;;;14.54;100.00
25658;BME280;13517;59.320;18.042;2023-09-18T08:25:21;101499.13;;;14.44;100.00
25658;BME280;13517;59.320;18.042;2023-09-18T08:27:46;101521.78;;;14.71;100.00
25658;BME280;13517;59.320;18.042;2023-09-18T08:30:13;101496.22;;;14.61;100.00
25658;BME280;13517;59.320;18.042;2023-09-18T08:32:42;101508.75;;;14.76;100.00
25658;BME280;13517;59.320;18.042;2023-09-18T08:35:08;101483.41;;;14.76;100.00
25658;BME280;13517;59.320;18.042;2023-09-18T08:37:34;101453.22;;;14.66;100.00
25658;BME280;13517;59.320;18.042;2023-09-18T08:39:59;101482.63;;;14.87;100.00
25658;BME280;13517;59.320;18.042;2023-09-18T08:42:30;101479.38;;;14.94;100.00
25658;BME280;13517;59.320;18.042;2023-09-18T08:44:58;101483.31;;;15.03;100.00
25658;BME280;13517;59.320;18.042;2023-09-18T08:47:25;101472.72;;;15.11;100.00
25658;BME280;13517;59.320;18.042;2023-09-18T08:49:51;101486.84;;;15.30;100.00
25658;BME280;13517;59.320;18.042;2023-09-18T08:52:18;101463.56;;;15.13;100.00
25658;BME280;13517;59.320;18.042;2023-09-18T08:54:43;101489.00;;;15.37;100.00
25658;BME280;13517;59.320;18.042;2023-09-18T08:57:10;101450.56;;;15.29;100.00
25658;BME280;13517;59.320;18.042;2023-09-18T08:59:37;101445.56;;;15.36;100.00
25658;BME280;13517;59.320;18.042;2023-09-18T09:02:04;101435.78;;;15.33;99.36
25658;BME280;13517;59.320;18.042;2023-09-18T09:04:29;101455.84;;;15.57;98.82
25658;BME280;13517;59.320;18.042;2023-09-18T09:06:55;101419.34;;;15.35;98.96
25658;BME280;13517;59.320;18.042;2023-09-18T09:09:25;101440.72;;;15.52;99.04
25658;BME280;13517;59.320;18.042;2023-09-18T09:11:51;101453.78;;;15.60;99.20
25658;BME280;13517;59.320;18.042;2023-09-18T09:14:17;101432.44;;;15.54;98.87
25658;BME280;13517;59.320;18.042;2023-09-18T09:16:50;101456.50;;;15.85;98.89
25658;BME280;13517;59.320;18.042;2023-09-18T09:19:31;101448.63;;;15.93;98.04
25658;BME280;13517;59.320;18.042;2023-09-18T09:21:58;101452.44;;;15.90;98.47
25658;BME280;13517;59.320;18.042;2023-09-18T09:24:43;101439.63;;;15.79;96.70
25658;BME280;13517;59.320;18.042;2023-09-18T09:27:10;101448.16;;;15.75;97.50
25658;BME280;13517;59.320;18.042;2023-09-18T09:29:36;101443.38;;;15.65;97.40
25658;BME280;13517;59.320;18.042;2023-09-18T09:32:18;101437.78;;;15.56;95.13
25658;BME280;13517;59.320;18.042;2023-09-18T09:34:45;101430.00;;;15.62;96.98
25658;BME280;13517;59.320;18.042;2023-09-18T09:37:11;101403.41;;;15.66;96.23
25658;BME280;13517;59.320;18.042;2023-09-18T09:39:50;101396.16;;;15.53;94.87
25658;BME280;13517;59.320;18.042;2023-09-18T09:42:20;101400.16;;;15.61;95.49
25658;BME280;13517;59.320;18.042;2023-09-18T09:45:11;101386.94;;;15.43;95.83
25658;BME280;13517;59.320;18.042;2023-09-18T09:47:37;101392.16;;;15.46;96.39
25658;BME280;13517;59.320;18.042;2023-09-18T09:50:08;101387.31;;;15.38;95.26
25658;BME280;13517;59.320;18.042;2023-09-18T09:52:35;101350.81;;;15.17;94.45
25658;BME280;13517;59.320;18.042;2023-09-18T09:55:03;101383.59;;;15.39;94.04
25658;BME280;13517;59.320;18.042;2023-09-18T09:57:50;101384.06;;;15.33;93.07
25658;BME280;13517;59.320;18.042;2023-09-18T10:00:16;101368.28;;;15.25;93.04
25658;BME280;13517;59.320;18.042;2023-09-18T10:02:59;101376.69;;;15.22;93.63
25658;BME280;13517;59.320;18.042;2023-09-18T10:05:27;101346.78;;;15.09;93.17
25658;BME280;13517;59.320;18.042;2023-09-18T10:07:54;101359.53;;;15.09;93.56
25658;BME280;13517;59.320;18.042;2023-09-18T10:10:25;101359.22;;;15.01;92.88
25658;BME280;13517;59.320;18.042;2023-09-18T10:12:53;101374.66;;;15.00;92.66
25658;BME280;13517;59.320;18.042;2023-09-18T10:15:21;101375.22;;;15.05;93.50
25658;BME280;13517;59.320;18.042;2023-09-18T10:17:49;101354.91;;;14.85;93.28
25658;BME280;13517;59.320;18.042;2023-09-18T10:20:17;101357.75;;;14.83;92.89
25658;BME280;13517;59.320;18.042;2023-09-18T10:22:49;101384.56;;;15.01;92.27
25658;BME280;13517;59.320;18.042;2023-09-18T10:25:20;101340.97;;;14.77;92.82
25658;BME280;13517;59.320;18.042;2023-09-18T10:27:48;101385.00;;;14.95;93.88
25658;BME280;13517;59.320;18.042;2023-09-18T10:30:27;101376.34;;;14.90;94.14
25658;BME280;13517;59.320;18.042;2023-09-18T10:32:52;101339.91;;;14.66;94.60
25658;BME280;13517;59.320;18.042;2023-09-18T10:35:19;101361.41;;;14.69;95.40
25658;BME280;13517;59.320;18.042;2023-09-18T10:37:45;101342.16;;;14.60;96.14
25658;BME280;13517;59.320;18.042;2023-09-18T10:40:12;101343.94;;;14.61;96.40
25658;BME280;13517;59.320;18.042;2023-09-18T10:42:39;101368.97;;;14.79;95.53
25658;BME280;13517;59.320;18.042;2023-09-18T10:45:10;101364.38;;;14.92;94.78
25658;BME280;13517;59.320;18.042;2023-09-18T10:47:40;101355.06;;;15.08;94.65
25658;BME280;13517;59.320;18.042;2023-09-18T10:50:08;101320.25;;;15.00;94.31
25658;BME280;13517;59.320;18.042;2023-09-18T10:52:35;101346.28;;;15.29;94.21
25658;BME280;13517;59.320;18.042;2023-09-18T10:55:01;101362.38;;;15.56;93.68
25658;BME280;13517;59.320;18.042;2023-09-18T10:57:34;101332.50;;;15.43;93.45
25658;BME280;13517;59.320;18.042;2023-09-18T11:00:01;101359.09;;;15.75;92.93
25658;BME280;13517;59.320;18.042;2023-09-18T11:02:41;101364.72;;;15.85;92.26
25658;BME280;13517;59.320;18.042;2023-09-18T11:05:07;101345.13;;;15.80;91.51
25658;BME280;13517;59.320;18.042;2023-09-18T11:07:32;101362.75;;;15.87;91.70
25658;BME280;13517;59.320;18.042;2023-09-18T11:09:57;101353.38;;;15.91;90.96
25658;BME280;13517;59.320;18.042;2023-09-18T11:12:45;101337.59;;;15.84;89.82
25658;BME280;13517;59.320;18.042;2023-09-18T11:15:25;101331.75;;;16.01;90.24
25658;BME280;13517;59.320;18.042;2023-09-18T11:18:01;101287.69;;;15.83;90.30
25658;BME280;13517;59.320;18.042;2023-09-18T11:20:30;101338.34;;;16.22;90.73
25658;BME280;13517;59.320;18.042;2023-09-18T11:23:10;101307.31;;;16.00;89.09
25658;BME280;13517;59.320;18.042;2023-09-18T11:25:41;101323.81;;;16.10;90.92
25658;BME280;13517;59.320;18.042;2023-09-18T11:28:08;101333.28;;;16.28;91.23
25658;BME280;13517;59.320;18.042;2023-09-18T11:30:37;101330.44;;;16.41;91.09
25658;BME280;13517;59.320;18.042;2023-09-18T11:33:05;101318.78;;;16.39;90.55
25658;BME280;13517;59.320;18.042;2023-09-18T11:35:32;101331.41;;;16.40;91.25
25658;BME280;13517;59.320;18.042;2023-09-18T11:38:09;101317.03;;;16.27;91.48
25658;BME280;13517;59.320;18.042;2023-09-18T11:40:36;101299.44;;;16.19;91.00
25658;BME280;13517;59.320;18.042;2023-09-18T11:43:26;101320.50;;;16.17;91.23
25658;BME280;13517;59.320;18.042;2023-09-18T11:45:55;101324.69;;;16.22;92.28
25658;BME280;13517;59.320;18.042;2023-09-18T11:48:23;101301.03;;;16.22;92.09
25658;BME280;13517;59.320;18.042;2023-09-18T11:50:51;101299.19;;;16.34;91.69
25658;BME280;13517;59.320;18.042;2023-09-18T11:53:18;101266.59;;;16.21;91.80
25658;BME280;13517;59.320;18.042;2023-09-18T11:55:44;101293.13;;;16.42;91.43
25658;BME280;13517;59.320;18.042;2023-09-18T11:58:10;101278.13;;;16.47;91.21
25658;BME280;13517;59.320;18.042;2023-09-18T12:00:35;101253.84;;;16.33;91.12
25658;BME280;13517;59.320;18.042;2023-09-18T12:03:21;101282.06;;;16.43;91.32
25658;BME280;13517;59.320;18.042;2023-09-18T12:05:58;101270.09;;;16.34;91.15
25658;BME280;13517;59.320;18.042;2023-09-18T12:08:25;101294.47;;;16.36;91.55
25658;BME280;13517;59.320;18.042;2023-09-18T12:10:54;101288.78;;;16.28;91.57
25658;BME280;13517;59.320;18.042;2023-09-18T12:13:21;101278.34;;;16.22;91.36
25658;BME280;13517;59.320;18.042;2023-09-18T12:15:48;101253.47;;;16.15;91.04
25658;BME280;13517;59.320;18.042;2023-09-18T12:18:14;101260.53;;;16.40;90.43
25658;BME280;13517;59.320;18.042;2023-09-18T12:20:47;101256.31;;;16.47;90.42
25658;BME280;13517;59.320;18.042;2023-09-18T12:23:14;101243.16;;;16.53;90.98
25658;BME280;13517;59.320;18.042;2023-09-18T12:25:40;101219.34;;;16.43;91.52
25658;BME280;13517;59.320;18.042;2023-09-18T12:28:07;101207.72;;;16.41;91.94
25658;BME280;13517;59.320;18.042;2023-09-18T12:30:33;101198.81;;;16.28;92.28
25658;BME280;13517;59.320;18.042;2023-09-18T12:32:59;101201.31;;;16.19;92.75
25658;BME280;13517;59.320;18.042;2023-09-18T12:35:29;101204.41;;;16.03;93.32
25658;BME280;13517;59.320;18.042;2023-09-18T12:37:59;101206.13;;;16.04;93.07
25658;BME280;13517;59.320;18.042;2023-09-18T12:40:31;101208.25;;;16.12;92.83